Augsburg, Illinois
Current Conditions -  °F | °C
As of 11:55 AM on Wednesday 28 Jan 2015 (Local Time) from KSLO Reporting Station
Clear Clear  
Wind Chill: 32°   Ceiling: Unl
Heat Index: 40°   Visibility: 10mi
Dew Point: 29°   Wind: 15mph
Humidity: 66%   Direction: 160°SSE
Pressure: 30.23"   Gusts: 21mph
Location:  38.8463°N, 89.0894°W
Report Text: KSLO 281755Z AUTO 16013G18KT 10SM CLR 04/M01 A3023 RMK AO2 T00441014 10044 21030
Loading
Personal Weather Stations






























Interactive Weather Map New forecast layout! Learn more

10-Day Weather Forecast

Advertisements
Track Severe Weather on mobile